aviador You're here:

KGGI Decoded Metar

GRINNELL REG in IA, USA
Report Time2017-11-25 03:55:00
UTC Time2017-11-25 03:57:01
Flight Rules vfr VFR
Wind320° at 12 kt
W.Decomp.*RWY 31: 11.9 kt HW 1.7 kt RCW
W.Rank320° ranks 7
Current wind is above 320° avg. (9.1)
Visibility9999 m
Phenomena:N/A
Clouds:N/A
Expected CloudBase > 1,600 ft AGL from Temp-Dew spread
CeilingNone
Temp07°C (ISA -6)
Dew Point03°C (76% RH)
AAT1.2°C
QNH1009 hPa
Density Alt531 ft
Elevation1,007 ft
Report Wrong Elevation
Raw Report
KGGI 250355Z AUTO 32012KT 10SM CLR 07/03 A2980 RMK AO2
T00730033=

Extra information for KGGI:More info

Metar Taf Metar & Taf Last 4 Metars F.Rules Stats Wind Profile Meteogram Temp Stats Airport Information Weather charts Add Link Nearby VenuesMetar ALERT Operation Metar Decoded Social comments

AIRNAV info for KGGI